Time;durP1;ratioP1;P1;durP2;ratioP2;P2;SDS_P1;SDS_P2;PMS_P1;PMS_P2;Temp;Humidity;BMP_temperature;BMP_pressure;BME280_temperature;BME280_humidity;BME280_pressure;Samples;Min_cycle;Max_cycle;Signal;HPM_P1;HPM_P2
2022/10/31 00:02:19;;;;;;;7.55;3.35;;;;;;;10.63;100.00;102187.84;7377999;19;20011;-70
2022/10/31 00:04:49;;;;;;;8.90;3.60;;;;;;;10.59;100.00;102185.06;7379056;19;20029;-70
2022/10/31 00:07:19;;;;;;;6.35;2.92;;;;;;;10.69;100.00;102182.78;7381136;19;20042;-70
2022/10/31 00:09:48;;;;;;;5.88;3.03;;;;;;;10.65;100.00;102187.88;7378331;19;20025;-71
2022/10/31 00:12:21;;;;;;;6.25;3.05;;;;;;;10.67;100.00;102194.97;7377585;19;20021;-70
2022/10/31 00:14:50;;;;;;;6.60;2.95;;;;;;;10.65;100.00;102191.41;7379164;19;20010;-70
2022/10/31 00:17:20;;;;;;;8.15;3.22;;;;;;;10.66;100.00;102192.28;7375598;19;20010;-70
2022/10/31 00:19:50;;;;;;;7.00;2.70;;;;;;;10.77;100.00;102193.56;7378379;19;20018;-70
2022/10/31 00:22:19;;;;;;;10.82;3.33;;;;;;;10.77;100.00;102196.19;7378676;19;20021;-70
2022/10/31 00:24:49;;;;;;;5.25;2.53;;;;;;;10.72;100.00;102197.75;7380938;19;20017;-70
2022/10/31 00:27:21;;;;;;;5.07;2.83;;;;;;;10.69;100.00;102202.91;7380858;19;20028;-71
2022/10/31 00:29:51;;;;;;;5.60;2.88;;;;;;;10.66;100.00;102195.81;7378265;19;20022;-76
2022/10/31 00:32:20;;;;;;;7.78;3.70;;;;;;;10.61;100.00;102199.13;7374914;19;20007;-70
2022/10/31 00:34:50;;;;;;;7.85;3.20;;;;;;;10.58;100.00;102194.66;7373585;19;20015;-70
2022/10/31 00:37:20;;;;;;;5.88;2.88;;;;;;;10.59;100.00;102201.69;7374115;19;20014;-70
2022/10/31 00:39:50;;;;;;;7.38;3.15;;;;;;;10.50;100.00;102201.38;7374298;19;20153;-70
2022/10/31 00:42:22;;;;;;;4.85;2.92;;;;;;;10.48;100.00;102203.03;7375645;19;20018;-70
2022/10/31 00:44:51;;;;;;;6.07;2.83;;;;;;;10.41;100.00;102207.16;7377016;19;20455;-70
2022/10/31 00:47:21;;;;;;;6.03;3.35;;;;;;;10.46;100.00;102209.97;7378042;19;20402;-70
2022/10/31 00:49:51;;;;;;;8.57;3.30;;;;;;;10.41;100.00;102206.28;7377047;19;20022;-70
2022/10/31 00:52:20;;;;;;;7.65;3.78;;;;;;;10.43;100.00;102207.22;7375542;19;20349;-70
2022/10/31 00:54:50;;;;;;;6.03;3.30;;;;;;;10.37;100.00;102209.66;7377418;19;20010;-70
2022/10/31 00:57:22;;;;;;;7.13;3.72;;;;;;;10.39;100.00;102206.25;7373789;19;20102;-70
2022/10/31 00:59:52;;;;;;;9.60;3.70;;;;;;;10.38;100.00;102198.34;7377952;19;20018;-70
2022/10/31 01:02:21;;;;;;;8.23;3.40;;;;;;;10.35;100.00;102185.13;7377729;19;20090;-70
2022/10/31 01:04:51;;;;;;;8.95;3.75;;;;;;;10.32;100.00;102174.50;7378863;19;20022;-70
2022/10/31 01:07:21;;;;;;;8.98;3.45;;;;;;;10.26;100.00;102179.53;7377037;19;20019;-70
2022/10/31 01:09:51;;;;;;;9.88;4.13;;;;;;;10.25;100.00;102183.00;7380505;19;20022;-70
2022/10/31 01:12:24;;;;;;;10.07;4.43;;;;;;;10.20;100.00;102188.06;7380346;19;20015;-70
2022/10/31 01:14:53;;;;;;;10.07;3.83;;;;;;;10.23;100.00;102190.81;7380228;19;20014;-70
2022/10/31 01:17:23;;;;;;;8.43;3.97;;;;;;;10.20;100.00;102184.56;7375230;19;20030;-70
2022/10/31 01:19:52;;;;;;;10.15;4.05;;;;;;;10.31;100.00;102180.59;7375616;19;20007;-70
2022/10/31 01:22:22;;;;;;;11.57;4.38;;;;;;;10.31;100.00;102183.22;7375929;19;20010;-70
2022/10/31 01:24:52;;;;;;;8.95;4.13;;;;;;;10.23;100.00;102185.56;7378163;19;20022;-70
2022/10/31 01:27:24;;;;;;;8.93;4.20;;;;;;;10.26;100.00;102179.53;7376072;19;20011;-70
2022/10/31 01:29:54;;;;;;;7.45;3.75;;;;;;;10.25;100.00;102176.03;7375027;19;20458;-70
2022/10/31 01:32:23;;;;;;;8.60;4.70;;;;;;;10.19;100.00;102174.88;7378852;19;20030;-70
2022/10/31 01:34:53;;;;;;;8.93;4.30;;;;;;;10.11;100.00;102177.22;7372756;19;20344;-70
2022/10/31 01:37:22;;;;;;;9.07;4.82;;;;;;;10.06;100.00;102171.81;7376266;19;20021;-70
2022/10/31 01:39:52;;;;;;;10.75;4.20;;;;;;;9.98;100.00;102168.03;7375258;19;20021;-70
2022/10/31 01:42:25;;;;;;;10.25;4.80;;;;;;;9.98;100.00;102173.25;7374669;19;20025;-70
2022/10/31 01:45:01;;;;;;;11.57;4.95;;;;;;;9.90;100.00;102172.09;7375858;19;20029;-70
2022/10/31 01:47:50;;;;;;;10.20;4.28;;;;;;;9.82;100.00;102161.31;7376915;19;20027;-70
2022/10/31 01:50:31;;;;;;;8.80;4.50;;;;;;;9.74;100.00;102157.53;7375064;19;20011;-70
2022/10/31 01:53:03;;;;;;;8.13;4.22;;;;;;;9.70;100.00;102159.97;7373453;19;20014;-70
2022/10/31 01:55:38;;;;;;;8.77;4.28;;;;;;;9.63;100.00;102156.22;7375855;19;20011;-75
2022/10/31 01:58:14;;;;;;;10.20;4.70;;;;;;;9.57;100.00;102157.72;7372734;19;21631;-75
2022/10/31 02:00:47;;;;;;;10.50;4.55;;;;;;;9.49;100.00;102166.16;7372079;19;20018;-75
2022/10/31 02:03:18;;;;;;;9.13;5.00;;;;;;;9.42;100.00;102161.53;7373667;19;20650;-75
2022/10/31 02:05:49;;;;;;;8.38;3.92;;;;;;;9.39;100.00;102161.41;7378492;19;20024;-75
2022/10/31 02:08:23;;;;;;;9.90;4.70;;;;;;;9.33;100.00;102163.81;7374525;19;20033;-75
2022/10/31 02:10:52;;;;;;;8.77;4.90;;;;;;;9.30;100.00;102154.94;7371432;19;20010;-75
2022/10/31 02:13:25;;;;;;;9.07;5.00;;;;;;;9.26;100.00;102163.50;7373358;19;20006;-75
2022/10/31 02:15:58;;;;;;;10.43;4.95;;;;;;;9.20;100.00;102161.53;7374774;19;20014;-75
2022/10/31 02:18:32;;;;;;;7.60;3.90;;;;;;;9.15;100.00;102160.47;7371939;19;20029;-75
2022/10/31 02:21:14;;;;;;;10.63;4.85;;;;;;;9.13;100.00;102175.22;7375213;19;20041;-75
2022/10/31 02:24:29;;;;;;;9.00;4.93;;;;;;;9.08;100.00;102171.53;7375564;19;20462;-75
2022/10/31 02:27:13;;;;;;;10.43;4.68;;;;;;;9.07;100.00;102175.88;7373115;19;20015;-76
2022/10/31 02:30:07;;;;;;;12.60;5.63;;;;;;;9.05;100.00;102174.91;7372587;19;20014;-74
2022/10/31 02:32:48;;;;;;;11.25;5.50;;;;;;;9.04;100.00;102174.84;7372852;19;20019;-76
2022/10/31 02:35:34;;;;;;;10.93;5.05;;;;;;;9.00;100.00;102176.44;7372272;19;20014;-75
2022/10/31 02:38:12;;;;;;;7.57;4.22;;;;;;;8.98;100.00;102169.38;7371743;19;20125;-77
2022/10/31 02:40:52;;;;;;;9.02;4.93;;;;;;;8.94;100.00;102173.56;7373195;19;20479;-74
2022/10/31 02:43:25;;;;;;;12.68;5.25;;;;;;;8.92;100.00;102174.34;7373148;19;20904;-76
2022/10/31 02:46:04;;;;;;;11.13;4.85;;;;;;;8.88;100.00;102168.09;7370871;19;20051;-74
2022/10/31 02:48:40;;;;;;;11.20;6.05;;;;;;;8.80;100.00;102167.78;7372050;19;20021;-75
2022/10/31 02:51:12;;;;;;;9.18;5.15;;;;;;;8.75;100.00;102171.03;7375652;19;20014;-75
2022/10/31 02:53:42;;;;;;;15.63;5.78;;;;;;;8.72;100.00;102166.56;7372642;19;20030;-75
2022/10/31 02:56:16;;;;;;;10.85;5.95;;;;;;;8.68;100.00;102164.66;7371838;19;20335;-75
2022/10/31 02:58:47;;;;;;;;;;;;;;;8.64;100.00;102156.59;7372019;19;20010;-75
2022/10/31 03:01:50;;;;;;;10.10;4.75;;;;;;;8.62;100.00;102159.16;7376844;19;19921;-76
2022/10/31 03:04:45;;;;;;;10.05;5.22;;;;;;;8.63;100.00;102160.06;7375332;19;20006;-76
2022/10/31 03:07:27;;;;;;;10.18;5.70;;;;;;;8.62;100.00;102163.50;7382118;19;20335;-75
2022/10/31 03:10:06;;;;;;;12.10;6.43;;;;;;;8.67;100.00;102156.75;7378269;19;20010;-75
2022/10/31 03:12:42;;;;;;;12.75;6.65;;;;;;;8.63;100.00;102160.94;7375913;19;20753;-75
2022/10/31 03:15:24;;;;;;;11.68;6.32;;;;;;;8.62;100.00;102160.88;7382256;19;20006;-75
2022/10/31 03:18:00;;;;;;;14.55;6.82;;;;;;;8.62;100.00;102159.16;7376919;19;20047;-75
2022/10/31 03:20:40;;;;;;;14.95;7.07;;;;;;;8.64;100.00;102167.97;7379139;19;20559;-75
2022/10/31 03:23:14;;;;;;;12.45;7.97;;;;;;;8.65;100.00;102164.53;7378366;19;20010;-75
2022/10/31 03:25:45;;;;;;;11.88;7.03;;;;;;;8.70;100.00;102163.00;7377798;19;20021;-75
2022/10/31 03:28:19;;;;;;;14.48;8.05;;;;;;;8.73;100.00;102162.22;7373905;19;20019;-75
2022/10/31 03:30:50;;;;;;;;;;;;;;;8.73;100.00;102168.34;7377932;19;20019;-76
2022/10/31 03:33:24;;;;;;;12.15;6.55;;;;;;;8.73;100.00;102164.84;7379764;19;19941;-76
2022/10/31 03:35:57;;;;;;;;;;;;;;;8.74;100.00;102167.50;7376861;19;20011;-75
2022/10/31 03:38:28;;;;;;;15.37;7.67;;;;;;;8.74;100.00;102164.91;7375859;19;19930;-76
2022/10/31 03:41:01;;;;;;;16.48;9.02;;;;;;;8.77;100.00;102164.13;7376487;19;20014;-75
2022/10/31 03:43:39;;;;;;;19.38;8.98;;;;;;;8.84;100.00;102166.19;7381829;19;20019;-75
2022/10/31 03:46:09;;;;;;;19.27;8.55;;;;;;;8.90;100.00;102162.91;7378442;19;20010;-76
2022/10/31 03:48:39;;;;;;;20.48;9.48;;;;;;;8.92;100.00;102154.31;7375127;19;20763;-76
2022/10/31 03:51:19;;;;;;;21.02;11.40;;;;;;;8.90;100.00;102148.13;7378547;19;20082;-75
2022/10/31 03:53:54;;;;;;;20.23;10.18;;;;;;;8.87;100.00;102162.78;7377812;19;20951;-76
2022/10/31 03:56:32;;;;;;;17.30;9.10;;;;;;;8.76;100.00;102152.78;7377073;19;20033;-76
2022/10/31 03:59:07;;;;;;;18.67;8.88;;;;;;;8.70;100.00;102160.38;7374133;19;20019;-75
2022/10/31 04:01:42;;;;;;;18.83;9.60;;;;;;;8.68;100.00;102150.69;7375172;19;20022;-75
2022/10/31 04:04:13;;;;;;;20.45;9.73;;;;;;;8.62;100.00;102155.66;7377216;19;20011;-75
2022/10/31 04:06:48;;;;;;;17.17;9.32;;;;;;;8.59;100.00;102160.75;7378155;19;20011;-75
2022/10/31 04:09:21;;;;;;;19.17;10.40;;;;;;;8.56;100.00;102158.91;7378972;19;20031;-75
2022/10/31 04:11:54;;;;;;;22.25;10.85;;;;;;;8.55;100.00;102158.84;7379660;19;20070;-76
2022/10/31 04:14:26;;;;;;;23.33;11.00;;;;;;;8.51;100.00;102155.19;7378246;19;20007;-76
2022/10/31 04:16:57;;;;;;;19.63;9.98;;;;;;;8.46;100.00;102156.72;7380393;19;20006;-78
2022/10/31 04:19:26;;;;;;;19.77;10.65;;;;;;;8.51;100.00;102157.81;7375038;19;20738;-77
2022/10/31 04:21:58;;;;;;;21.05;12.40;;;;;;;8.64;100.00;102162.72;7376526;19;20049;-73
2022/10/31 04:24:28;;;;;;;26.08;14.23;;;;;;;8.83;100.00;102160.06;7376462;19;20014;-72
2022/10/31 04:26:58;;;;;;;25.15;12.65;;;;;;;8.81;100.00;102168.66;7378105;19;20018;-71
2022/10/31 04:29:30;;;;;;;23.77;13.43;;;;;;;8.72;100.00;102161.31;7379427;19;20048;-72
2022/10/31 04:32:00;;;;;;;28.02;13.80;;;;;;;8.69;100.00;102166.44;7378548;19;20006;-71
2022/10/31 04:34:29;;;;;;;23.48;12.65;;;;;;;8.70;100.00;102162.09;7377736;19;20452;-71
2022/10/31 04:37:02;;;;;;;26.65;12.98;;;;;;;8.64;100.00;102154.88;7379716;19;20015;-72
2022/10/31 04:39:34;;;;;;;24.25;12.65;;;;;;;8.59;100.00;102159.03;7378850;19;20467;-71
2022/10/31 04:42:04;;;;;;;22.88;12.45;;;;;;;8.51;100.00;102163.03;7378030;19;20018;-71
2022/10/31 04:44:33;;;;;;;19.80;10.50;;;;;;;8.43;100.00;102156.59;7373370;19;20025;-72
2022/10/31 04:47:03;;;;;;;21.33;11.20;;;;;;;8.38;100.00;102163.34;7379870;19;20298;-71
2022/10/31 04:49:33;;;;;;;22.40;12.05;;;;;;;8.31;100.00;102163.91;7380123;19;20463;-71
2022/10/31 04:52:06;;;;;;;20.10;10.55;;;;;;;8.26;100.00;102161.09;7379124;19;20021;-73
2022/10/31 04:54:37;;;;;;;24.42;11.65;;;;;;;8.24;100.00;102156.63;7378575;19;20015;-72
2022/10/31 04:57:06;;;;;;;22.50;12.32;;;;;;;8.22;100.00;102150.44;7377615;19;20025;-71
2022/10/31 04:59:36;;;;;;;22.00;10.95;;;;;;;8.19;100.00;102145.97;7379807;19;20010;-73
2022/10/31 05:02:06;;;;;;;21.27;12.35;;;;;;;8.16;100.00;102145.84;7379988;19;20378;-72
2022/10/31 05:04:36;;;;;;;27.33;11.52;;;;;;;8.15;100.00;102147.56;7378522;19;20015;-71
2022/10/31 05:07:08;;;;;;;23.85;12.70;;;;;;;8.33;100.00;102154.41;7375480;19;20022;-71
2022/10/31 05:09:37;;;;;;;27.05;13.15;;;;;;;8.39;100.00;102146.81;7378665;19;20017;-72
2022/10/31 05:12:07;;;;;;;32.03;14.80;;;;;;;8.49;100.00;102149.00;7377899;19;20082;-71
2022/10/31 05:14:37;;;;;;;26.75;15.70;;;;;;;8.51;100.00;102147.34;7379067;19;20018;-71
2022/10/31 05:17:09;;;;;;;31.65;16.40;;;;;;;8.54;100.00;102144.88;7379154;19;20243;-71
2022/10/31 05:19:39;;;;;;;29.65;15.38;;;;;;;8.56;100.00;102131.84;7372847;19;20014;-71
2022/10/31 05:22:12;;;;;;;25.88;14.52;;;;;;;8.49;100.00;102130.72;7370242;19;20022;-73
2022/10/31 05:24:41;;;;;;;26.25;13.30;;;;;;;8.41;100.00;102133.00;7377909;19;20094;-76
2022/10/31 05:27:11;;;;;;;29.48;14.40;;;;;;;8.34;100.00;102132.66;7376955;19;20501;-75
2022/10/31 05:29:41;;;;;;;24.15;11.55;;;;;;;8.27;100.00;102128.00;7375694;19;20015;-76
2022/10/31 05:32:10;;;;;;;24.13;12.13;;;;;;;8.24;100.00;102125.25;7377919;19;20624;-76
2022/10/31 05:34:40;;;;;;;23.35;12.95;;;;;;;8.19;100.00;102120.72;7377220;19;20026;-78
2022/10/31 05:37:12;;;;;;;23.13;11.57;;;;;;;8.16;100.00;102122.31;7375098;19;20019;-76
2022/10/31 05:39:42;;;;;;;27.08;13.10;;;;;;;8.06;100.00;102121.03;7374989;19;20030;-76
2022/10/31 05:42:12;;;;;;;26.90;13.93;;;;;;;8.04;100.00;102121.78;7374181;19;20029;-76
2022/10/31 05:44:42;;;;;;;22.10;11.57;;;;;;;8.02;100.00;102134.78;7373310;19;20094;-76
2022/10/31 05:47:14;;;;;;;26.08;12.35;;;;;;;8.04;100.00;102130.50;7375824;19;20014;-77
2022/10/31 05:49:44;;;;;;;23.17;12.05;;;;;;;8.03;100.00;102128.72;7378126;19;20013;-76
2022/10/31 05:52:17;;;;;;;22.77;11.75;;;;;;;7.95;100.00;102135.31;7376436;19;20025;-78
2022/10/31 05:54:46;;;;;;;22.57;11.57;;;;;;;7.95;100.00;102132.72;7374359;19;20019;-75
2022/10/31 05:57:17;;;;;;;23.88;12.38;;;;;;;7.92;100.00;102134.28;7379676;19;20010;-77
2022/10/31 05:59:47;;;;;;;25.15;12.30;;;;;;;7.91;100.00;102128.19;7376986;19;20014;-76
2022/10/31 06:02:23;;;;;;;26.70;13.70;;;;;;;7.99;100.00;102124.19;7374076;19;20047;-76
2022/10/31 06:04:53;;;;;;;26.83;14.20;;;;;;;8.02;100.00;102126.03;7378353;19;20018;-76
2022/10/31 06:07:25;;;;;;;29.33;13.85;;;;;;;8.17;100.00;102131.94;7380905;19;20520;-76
2022/10/31 06:09:54;;;;;;;29.58;14.68;;;;;;;8.30;100.00;102115.06;7376148;19;20010;-76
2022/10/31 06:12:24;;;;;;;27.48;14.45;;;;;;;8.39;100.00;102123.31;7376985;19;20011;-77
2022/10/31 06:14:54;;;;;;;25.33;13.70;;;;;;;8.40;100.00;102115.53;7375475;19;20080;-76
2022/10/31 06:17:24;;;;;;;25.27;13.52;;;;;;;8.41;100.00;102116.41;7375527;19;20025;-77
2022/10/31 06:19:53;;;;;;;23.85;13.60;;;;;;;8.42;100.00;102115.59;7374734;19;20031;-75
2022/10/31 06:22:26;;;;;;;26.73;13.60;;;;;;;8.42;100.00;102121.72;7374320;19;20032;-72
2022/10/31 06:24:55;;;;;;;25.35;14.13;;;;;;;8.40;100.00;102120.75;7374107;19;20015;-73
2022/10/31 06:27:25;;;;;;;28.60;14.20;;;;;;;8.36;100.00;102129.28;7375418;19;20011;-71
2022/10/31 06:29:55;;;;;;;30.27;14.70;;;;;;;8.29;100.00;102129.84;7374865;19;20010;-71
2022/10/31 06:32:24;;;;;;;28.35;14.75;;;;;;;8.24;100.00;102128.75;7376190;19;20010;-71
2022/10/31 06:34:54;;;;;;;25.00;12.70;;;;;;;8.20;100.00;102137.28;7383166;19;20010;-73
2022/10/31 06:37:26;;;;;;;26.17;14.75;;;;;;;8.16;100.00;102128.44;7382897;19;20018;-70
2022/10/31 06:39:56;;;;;;;23.85;12.65;;;;;;;8.14;100.00;102119.63;7377160;19;20018;-71
2022/10/31 06:42:26;;;;;;;26.13;12.70;;;;;;;8.15;100.00;102118.81;7382695;19;20082;-70
2022/10/31 06:44:56;;;;;;;24.30;13.85;;;;;;;8.14;100.00;102124.84;7384110;19;20098;-70
2022/10/31 06:47:25;;;;;;;25.80;13.02;;;;;;;8.11;100.00;102126.44;7382912;19;20021;-71
2022/10/31 06:49:55;;;;;;;30.17;13.70;;;;;;;8.10;100.00;102124.66;7381007;19;20093;-70
2022/10/31 06:52:27;;;;;;;27.80;13.40;;;;;;;8.07;100.00;102125.41;7381948;19;20035;-71
2022/10/31 06:54:57;;;;;;;27.20;14.13;;;;;;;8.08;100.00;102136.75;7378397;19;20049;-70
2022/10/31 06:57:27;;;;;;;21.85;12.15;;;;;;;8.07;100.00;102134.97;7383769;19;20018;-72
2022/10/31 06:59:57;;;;;;;23.55;12.73;;;;;;;8.14;100.00;102140.53;7381041;19;20046;-70
2022/10/31 07:02:26;;;;;;;23.38;14.13;;;;;;;8.23;100.00;102140.03;7379791;19;20106;-71
2022/10/31 07:04:56;;;;;;;25.95;14.43;;;;;;;8.30;100.00;102141.19;7381153;19;20010;-70
2022/10/31 07:07:28;;;;;;;23.98;13.63;;;;;;;8.35;100.00;102131.84;7378917;19;20018;-70
2022/10/31 07:09:58;;;;;;;26.77;14.65;;;;;;;8.39;100.00;102141.59;7376153;19;20042;-70
2022/10/31 07:12:28;;;;;;;28.60;14.38;;;;;;;8.42;100.00;102146.97;7380114;19;20010;-72
2022/10/31 07:14:58;;;;;;;27.27;15.15;;;;;;;8.47;100.00;102146.31;7377326;19;20014;-71
2022/10/31 07:17:27;;;;;;;25.73;14.40;;;;;;;8.47;100.00;102146.31;7379852;19;20274;-70
2022/10/31 07:19:58;;;;;;;30.83;15.63;;;;;;;8.52;100.00;102151.75;7376268;19;20026;-70
2022/10/31 07:22:35;;;;;;;30.98;16.55;;;;;;;8.58;100.00;102145.88;7381206;19;20017;-70
2022/10/31 07:25:05;;;;;;;28.90;15.77;;;;;;;8.61;100.00;102146.91;7376244;19;20014;-70
2022/10/31 07:27:38;;;;;;;30.83;16.20;;;;;;;8.64;100.00;102147.03;7376840;19;20014;-70
2022/10/31 07:30:13;;;;;;;30.27;17.52;;;;;;;8.70;100.00;102146.41;7377594;19;20015;-71
2022/10/31 07:32:44;;;;;;;26.23;16.15;;;;;;;8.72;100.00;102150.88;7375696;19;20022;-71
2022/10/31 07:35:16;;;;;;;34.92;17.70;;;;;;;8.79;100.00;102152.91;7380407;19;20218;-71
2022/10/31 07:37:48;;;;;;;40.15;20.15;;;;;;;9.02;100.00;102150.34;7377529;19;20011;-70
2022/10/31 07:40:19;;;;;;;36.30;18.92;;;;;;;9.03;100.00;102154.75;7378461;19;20011;-70
2022/10/31 07:42:51;;;;;;;37.67;19.92;;;;;;;9.18;100.00;102150.13;7379099;19;20018;-70
2022/10/31 07:45:23;;;;;;;36.42;21.05;;;;;;;9.24;100.00;102137.28;7379780;19;20111;-70
2022/10/31 07:47:54;;;;;;;;;;;;;;;9.37;100.00;102143.84;7378048;19;20018;-70
2022/10/31 07:50:26;;;;;;;39.97;20.48;;;;;;;9.43;100.00;102138.84;7374801;19;19922;-70
2022/10/31 07:53:06;;;;;;;39.78;21.67;;;;;;;9.45;100.00;102143.31;7379772;19;20018;-70
2022/10/31 07:55:37;;;;;;;42.70;21.70;;;;;;;9.52;100.00;102132.25;7373994;19;20079;-71
2022/10/31 07:58:08;;;;;;;43.70;22.67;;;;;;;9.60;100.00;102131.63;7378342;19;20017;-71
2022/10/31 08:00:40;;;;;;;36.88;20.75;;;;;;;9.64;100.00;102134.44;7376592;19;20010;-71
2022/10/31 08:03:12;;;;;;;42.05;22.92;;;;;;;9.68;100.00;102127.59;7378937;19;20015;-71
2022/10/31 08:05:44;;;;;;;47.17;22.92;;;;;;;9.75;100.00;102132.22;7381955;19;20014;-71
2022/10/31 08:08:17;;;;;;;45.75;24.25;;;;;;;9.81;100.00;102135.06;7377026;19;20022;-71
2022/10/31 08:10:47;;;;;;;40.03;21.75;;;;;;;9.87;100.00;102129.16;7377162;19;20018;-70
2022/10/31 08:13:17;;;;;;;39.38;21.05;;;;;;;9.93;100.00;102132.88;7375249;19;20021;-71
2022/10/31 08:15:50;;;;;;;41.92;22.15;;;;;;;9.95;100.00;102133.84;7371327;19;20022;-71
2022/10/31 08:18:21;;;;;;;48.00;23.75;;;;;;;9.98;100.00;102126.09;7375534;19;21548;-71
2022/10/31 08:20:51;;;;;;;44.17;23.73;;;;;;;10.05;100.00;102135.94;7371370;19;20018;-71
2022/10/31 08:23:23;;;;;;;47.45;26.25;;;;;;;10.13;100.00;102133.59;7377093;19;20018;-71
2022/10/31 08:25:53;;;;;;;46.22;22.55;;;;;;;10.14;100.00;102140.63;7377453;19;20010;-71
2022/10/31 08:28:23;;;;;;;46.63;24.88;;;;;;;10.25;100.00;102135.81;7374929;19;20014;-71
2022/10/31 08:30:52;;;;;;;46.97;23.92;;;;;;;10.28;100.00;102138.53;7372604;19;20021;-71
2022/10/31 08:33:22;;;;;;;47.08;23.67;;;;;;;10.38;100.00;102144.16;7376816;19;20598;-71
2022/10/31 08:35:52;;;;;;;44.38;23.17;;;;;;;10.47;100.00;102138.31;7374154;19;20014;-71
2022/10/31 08:38:24;;;;;;;52.53;25.98;;;;;;;10.57;100.00;102150.00;7373494;19;20018;-71
2022/10/31 08:40:53;;;;;;;58.05;24.48;;;;;;;10.66;100.00;102140.72;7376142;19;20010;-75
2022/10/31 08:43:23;;;;;;;53.78;24.67;;;;;;;10.79;100.00;102131.50;7372237;19;20771;-71
2022/10/31 08:45:54;;;;;;;51.92;25.20;;;;;;;10.97;100.00;102125.97;7372501;19;20018;-70
2022/10/31 08:48:24;;;;;;;46.38;23.77;;;;;;;11.10;100.00;102139.53;7375347;19;20010;-70
2022/10/31 08:50:54;;;;;;;50.10;23.83;;;;;;;11.18;100.00;102131.00;7373996;19;20098;-75
2022/10/31 08:53:26;;;;;;;46.97;22.15;;;;;;;11.26;100.00;102125.16;7375047;19;20042;-70
2022/10/31 08:56:01;;;;;;;52.30;24.60;;;;;;;11.39;100.00;102115.91;7372284;19;20030;-70
2022/10/31 08:58:31;;;;;;;47.47;24.30;;;;;;;11.57;100.00;102120.78;7375577;19;20019;-71
2022/10/31 09:01:08;;;;;;;48.40;22.50;;;;;;;11.67;100.00;102112.34;7370213;19;20707;-71
2022/10/31 09:03:38;;;;;;;48.33;22.33;;;;;;;11.78;100.00;102110.94;7371615;19;20015;-71
2022/10/31 09:06:08;;;;;;;44.45;22.88;;;;;;;11.89;100.00;102104.25;7372337;19;20102;-71
2022/10/31 09:08:41;;;;;;;41.78;20.52;;;;;;;11.99;100.00;102101.03;7371964;19;20039;-71
2022/10/31 09:11:10;;;;;;;44.85;21.15;;;;;;;12.09;100.00;102097.81;7376691;19;20019;-71
2022/10/31 09:13:40;;;;;;;43.75;20.05;;;;;;;12.19;100.00;102088.41;7378204;19;20428;-71
2022/10/31 09:16:10;;;;;;;38.55;20.60;;;;;;;12.22;100.00;102090.25;7375619;19;20006;-71
2022/10/31 09:18:40;;;;;;;42.80;19.15;;;;;;;12.25;100.00;102088.59;7375568;19;20097;-72
2022/10/31 09:21:10;;;;;;;38.90;20.38;;;;;;;12.29;100.00;102081.66;7373972;19;20021;-72
2022/10/31 09:23:42;;;;;;;38.55;18.20;;;;;;;12.31;100.00;102078.22;7374383;19;20018;-72
2022/10/31 09:26:12;;;;;;;33.30;17.73;;;;;;;12.36;100.00;102075.72;7375214;19;20011;-73
2022/10/31 09:28:41;;;;;;;33.25;16.20;;;;;;;12.38;100.00;102064.38;7374599;19;20029;-71
2022/10/31 09:31:11;;;;;;;33.30;17.67;;;;;;;12.38;100.00;102068.75;7372540;19;20026;-72
2022/10/31 09:33:41;;;;;;;30.38;15.77;;;;;;;12.40;100.00;102065.31;7372586;19;20021;-72
2022/10/31 09:36:11;;;;;;;34.58;17.55;;;;;;;12.48;100.00;102062.81;7374627;19;20010;-70
2022/10/31 09:38:44;;;;;;;35.35;16.77;;;;;;;12.58;100.00;102056.94;7378224;19;20101;-72
2022/10/31 09:41:22;;;;;;;33.53;16.02;;;;;;;12.66;100.00;102046.59;7372851;19;20014;-72
2022/10/31 09:44:01;;;;;;;32.58;15.00;;;;;;;12.74;100.00;102045.94;7372982;19;20044;-72
2022/10/31 09:46:36;;;;;;;29.83;14.52;;;;;;;12.88;100.00;102048.00;7372619;19;20014;-71
2022/10/31 09:49:37;;;;;;;30.45;15.15;;;;;;;12.97;100.00;102043.81;7376286;19;20528;-71
2022/10/31 09:52:14;;;;;;;32.60;16.05;;;;;;;13.07;100.00;102032.66;7377177;19;20017;-69
2022/10/31 09:54:51;;;;;;;30.33;14.18;;;;;;;13.14;100.00;102038.94;7375313;19;20014;-72
2022/10/31 09:57:28;;;;;;;30.58;15.32;;;;;;;13.22;100.00;102031.22;7376236;19;20021;-70
2022/10/31 09:59:58;;;;;;;30.45;15.27;;;;;;;13.31;100.00;102034.06;7375293;19;20017;-72
2022/10/31 10:02:34;;;;;;;28.33;14.55;;;;;;;13.30;100.00;102024.38;7373598;19;20007;-70
2022/10/31 10:05:07;;;;;;;28.30;15.32;;;;;;;13.30;100.00;102029.66;7374810;19;20475;-77
2022/10/31 10:07:47;;;;;;;31.77;15.05;;;;;;;13.30;100.00;102027.00;7370538;19;20011;-69
2022/10/31 10:10:27;;;;;;;30.73;16.35;;;;;;;13.35;100.00;102020.97;7371217;19;20018;-70
2022/10/31 10:13:27;;;;;;;36.47;15.25;;;;;;;13.43;100.00;102017.63;7367057;19;20014;-70
2022/10/31 10:16:09;;;;;;;32.08;14.93;;;;;;;13.49;100.00;102015.09;7370488;19;20011;-70
2022/10/31 10:18:54;;;;;;;38.63;16.23;;;;;;;13.72;100.00;102013.78;7370487;19;20014;-70
2022/10/31 10:21:37;;;;;;;30.45;15.38;;;;;;;13.84;100.00;102013.13;7371042;19;20022;-71
2022/10/31 10:24:30;;;;;;;32.45;14.60;;;;;;;14.14;100.00;102004.88;7374535;19;20034;-71
2022/10/31 10:27:19;;;;;;;29.80;15.23;;;;;;;14.45;100.00;101996.63;7373475;19;20046;-70
2022/10/31 10:29:59;;;;;;;32.38;15.75;;;;;;;14.83;100.00;101988.38;7371849;19;20030;-71
2022/10/31 10:32:32;;;;;;;29.65;14.43;;;;;;;14.90;100.00;101980.53;7374520;19;20549;-72
2022/10/31 10:35:10;;;;;;;27.02;13.63;;;;;;;14.99;100.00;101983.31;7372576;19;20011;-70
2022/10/31 10:37:43;;;;;;;27.98;13.70;;;;;;;14.93;100.00;101977.94;7373534;19;20015;-70
2022/10/31 10:40:16;;;;;;;;;;;;;;;15.07;100.00;101975.47;7374573;19;20021;-70
2022/10/31 10:48:44;;;;;;;28.55;13.40;;;;;;;14.98;100.00;101970.09;7378249;19;20014;-71
2022/10/31 10:51:23;;;;;;;25.83;12.85;;;;;;;14.88;100.00;101963.78;7374000;19;20465;-70
2022/10/31 10:54:24;;;;;;;24.83;12.18;;;;;;;14.94;100.00;101962.97;7371165;19;20014;-76
2022/10/31 10:57:05;;;;;;;27.90;12.82;;;;;;;14.95;100.00;101960.38;7368417;19;20011;-75
2022/10/31 10:59:38;;;;;;;30.17;15.52;;;;;;;14.93;100.00;101964.75;7374221;19;20002;-76
2022/10/31 11:02:19;;;;;;;33.08;14.50;;;;;;;14.98;100.00;101965.69;7371498;19;20045;-76
2022/10/31 11:04:53;;;;;;;30.10;14.60;;;;;;;15.08;100.00;101953.47;7369678;19;20447;-76
2022/10/31 11:07:24;;;;;;;32.70;15.02;;;;;;;15.10;100.00;101959.66;7371632;19;20081;-75
2022/10/31 11:09:53;;;;;;;28.10;13.88;;;;;;;15.20;100.00;101953.63;7373147;19;20014;-76
2022/10/31 11:12:27;;;;;;;27.52;14.15;;;;;;;15.21;100.00;101958.06;7376433;19;20026;-74
2022/10/31 11:15:11;;;;;;;30.42;14.50;;;;;;;15.28;100.00;101954.59;7369512;19;20089;-75
2022/10/31 11:17:43;;;;;;;28.17;13.40;;;;;;;15.32;100.00;101959.06;7370261;19;20018;-75
2022/10/31 11:20:30;;;;;;;25.42;13.63;;;;;;;15.47;100.00;101950.41;7381340;19;20014;-75
2022/10/31 11:23:18;;;;;;;26.38;13.60;;;;;;;15.42;100.00;101945.94;7378194;19;20037;-75
2022/10/31 11:25:53;;;;;;;30.23;14.63;;;;;;;15.37;100.00;101935.31;7378445;19;20776;-75
2022/10/31 11:28:23;;;;;;;24.52;12.75;;;;;;;15.40;100.00;101943.28;7382516;19;20014;-75
2022/10/31 11:30:58;;;;;;;30.13;14.05;;;;;;;15.30;100.00;101937.00;7380932;19;20014;-77
2022/10/31 11:33:33;;;;;;;27.75;13.10;;;;;;;15.26;100.00;101929.03;7380044;19;20018;-77
2022/10/31 11:36:04;;;;;;;24.48;13.48;;;;;;;15.25;100.00;101920.22;7380066;19;20089;-77
2022/10/31 11:38:37;;;;;;;27.70;14.15;;;;;;;15.26;100.00;101924.63;7374085;19;20014;-77
2022/10/31 11:41:14;;;;;;;27.10;13.45;;;;;;;15.15;100.00;101925.38;7378458;19;20014;-76
2022/10/31 11:43:52;;;;;;;32.55;16.05;;;;;;;15.10;100.00;101912.13;7381672;19;20019;-76
2022/10/31 11:46:31;;;;;;;33.17;16.48;;;;;;;15.07;100.00;101900.63;7379982;19;20029;-77